createdAt,value
2023-03-13T05:16:04.009Z,1.50
2023-03-13T05:17:04.900Z,1.50
2023-03-13T05:18:03.909Z,2.20
2023-03-13T05:19:03.912Z,1.80
2023-03-13T05:20:03.920Z,2.40
2023-03-13T05:21:03.875Z,2.00
2023-03-13T05:22:03.897Z,2.10
2023-03-13T05:23:03.890Z,2.10
2023-03-13T05:24:04.310Z,4.00
2023-03-13T05:25:05.258Z,2.30
2023-03-13T05:26:03.847Z,1.90
2023-03-13T05:27:03.811Z,2.10
2023-03-13T05:28:03.847Z,2.90
2023-03-13T05:29:03.826Z,1.90
2023-03-13T05:30:03.805Z,1.80
2023-03-13T05:31:04.180Z,2.70
2023-03-13T05:32:03.849Z,2.20
2023-03-13T05:33:04.197Z,2.10
2023-03-13T05:34:03.911Z,1.70
2023-03-13T05:35:05.195Z,1.80
2023-03-13T05:36:04.536Z,2.00
2023-03-13T05:37:03.704Z,2.10
2023-03-13T05:38:03.716Z,2.40
2023-03-13T05:39:03.675Z,1.70
2023-03-13T05:40:03.701Z,2.00
2023-03-13T05:41:03.709Z,3.00
2023-03-13T05:42:03.696Z,1.70
2023-03-13T05:43:03.656Z,1.80
2023-03-13T05:44:03.622Z,2.20
2023-03-13T05:45:03.734Z,1.80
2023-03-13T05:46:03.619Z,2.10
2023-03-13T05:47:04.177Z,2.10
2023-03-13T05:48:03.628Z,2.20
2023-03-13T05:49:03.596Z,2.90
2023-03-13T05:50:03.556Z,2.70
2023-03-13T05:51:03.623Z,2.00
2023-03-13T05:52:03.605Z,1.60
2023-03-13T05:53:03.560Z,1.90
2023-03-13T05:54:03.697Z,1.80
2023-03-13T05:55:03.540Z,2.70
2023-03-13T05:56:03.498Z,3.20
2023-03-13T05:57:05.052Z,2.30
2023-03-13T05:58:03.496Z,2.80
2023-03-13T05:59:04.407Z,2.20
2023-03-13T06:00:03.446Z,2.00
2023-03-13T06:01:03.451Z,1.90
2023-03-13T06:02:05.518Z,2.60
2023-03-13T06:03:03.476Z,3.60
2023-03-13T06:04:03.534Z,2.90
2023-03-13T06:05:03.488Z,2.00
2023-03-13T06:06:03.385Z,2.40
2023-03-13T06:07:03.369Z,1.90
2023-03-13T06:08:03.606Z,4.70
2023-03-13T06:09:03.359Z,2.40
2023-03-13T06:10:04.168Z,2.20
2023-03-13T06:11:03.648Z,5.00
2023-03-13T06:12:03.323Z,3.00
2023-03-13T06:13:18.680Z,2.80
2023-03-13T06:14:04.347Z,3.10
2023-03-13T06:15:03.278Z,2.20
2023-03-13T06:16:03.320Z,1.90
2023-03-13T06:17:03.237Z,2.60
2023-03-13T06:18:03.272Z,1.80
2023-03-13T06:19:03.222Z,2.90
2023-03-13T06:20:03.223Z,2.30
2023-03-13T06:21:03.258Z,2.20
2023-03-13T06:22:03.237Z,3.00
2023-03-13T06:23:03.199Z,2.10
2023-03-13T06:24:03.176Z,2.00
2023-03-13T06:25:03.174Z,2.30
2023-03-13T06:26:03.140Z,1.80
2023-03-13T06:27:03.126Z,2.10
2023-03-13T06:28:03.511Z,2.30
2023-03-13T06:29:03.142Z,2.50
2023-03-13T06:30:03.143Z,1.80
2023-03-13T06:31:03.122Z,1.90
2023-03-13T06:32:03.271Z,2.60
2023-03-13T06:33:04.740Z,2.00
2023-03-13T06:34:03.092Z,4.00
2023-03-13T06:35:04.019Z,4.50
2023-03-13T06:36:03.089Z,3.10
2023-03-13T06:37:03.092Z,1.50
2023-03-13T06:38:03.017Z,2.00
2023-03-13T06:39:03.002Z,4.10
2023-03-13T06:40:03.006Z,1.50
2023-03-13T06:41:02.980Z,1.60
2023-03-13T06:42:02.974Z,1.90
2023-03-13T06:43:02.939Z,2.70
2023-03-13T06:44:02.932Z,1.80
2023-03-13T06:45:02.925Z,2.20
2023-03-13T06:46:02.962Z,1.80
2023-03-13T06:47:03.021Z,1.70
2023-03-13T06:48:02.890Z,1.50
2023-03-13T06:49:02.877Z,1.80
2023-03-13T06:50:02.864Z,2.30
2023-03-13T06:51:02.902Z,3.10
2023-03-13T06:52:02.871Z,1.60
2023-03-13T06:53:02.843Z,3.20
2023-03-13T06:54:02.931Z,2.10
2023-03-13T06:55:02.822Z,2.20
2023-03-13T06:56:02.810Z,1.50
2023-03-13T06:57:02.820Z,2.10
2023-03-13T06:58:02.791Z,2.30
2023-03-13T06:59:02.812Z,2.20
2023-03-13T07:00:02.767Z,2.80
2023-03-13T07:01:02.961Z,3.20
2023-03-13T07:02:02.755Z,1.70
2023-03-13T07:03:03.526Z,1.60
2023-03-13T07:04:02.788Z,2.40
2023-03-13T07:05:04.160Z,2.80
2023-03-13T07:06:02.713Z,1.70
2023-03-13T07:07:02.689Z,2.50
2023-03-13T07:08:02.690Z,1.50
2023-03-13T07:09:03.750Z,3.80
2023-03-13T07:10:02.657Z,2.80
2023-03-13T07:11:02.664Z,3.60
2023-03-13T07:12:02.749Z,2.60
2023-03-13T07:13:02.610Z,3.20
2023-03-13T07:14:15.927Z,2.60
2023-03-13T07:15:03.609Z,2.60
2023-03-13T07:16:02.609Z,3.00
2023-03-13T07:17:02.758Z,2.70
2023-03-13T07:18:02.560Z,2.30
2023-03-13T07:19:02.582Z,2.80
2023-03-13T07:20:02.662Z,2.30
2023-03-13T07:21:02.514Z,1.60
2023-03-13T07:22:02.535Z,2.60
2023-03-13T07:23:02.685Z,2.10
2023-03-13T07:24:02.496Z,2.50
2023-03-13T07:25:02.525Z,2.80
2023-03-13T07:26:03.462Z,2.10
2023-03-13T07:27:07.568Z,3.50
2023-03-13T07:28:04.307Z,6.20
2023-03-13T07:29:02.454Z,3.50
2023-03-13T07:30:02.470Z,7.20
2023-03-13T07:31:02.446Z,1.80
2023-03-13T07:32:02.471Z,3.00
2023-03-13T07:33:02.519Z,7.20
2023-03-13T07:34:02.449Z,3.90
2023-03-13T07:35:02.374Z,2.40
2023-03-13T07:36:02.386Z,3.50
2023-03-13T07:37:02.358Z,2.40
2023-03-13T07:38:02.341Z,2.90
2023-03-13T07:39:03.132Z,4.70
2023-03-13T07:40:02.340Z,2.30
2023-03-13T07:41:03.771Z,4.40
2023-03-13T07:42:02.293Z,3.10
2023-03-13T07:43:02.280Z,2.40
2023-03-13T07:44:03.719Z,5.40
2023-03-13T07:45:03.366Z,5.10
2023-03-13T07:46:02.315Z,2.70
2023-03-13T07:47:02.229Z,2.40
2023-03-13T07:48:02.231Z,3.70
2023-03-13T07:49:02.224Z,3.00
2023-03-13T07:50:03.800Z,3.70
2023-03-13T07:51:02.199Z,4.10
2023-03-13T07:52:02.260Z,3.10
2023-03-13T07:53:03.690Z,4.10
2023-03-13T07:54:02.379Z,2.70
2023-03-13T07:55:02.291Z,2.60
2023-03-13T07:56:02.154Z,2.60
2023-03-13T07:57:02.160Z,6.60
2023-03-13T07:58:02.138Z,3.00
2023-03-13T07:59:02.128Z,2.90
2023-03-13T08:00:02.090Z,5.30
2023-03-13T08:01:02.171Z,3.10
2023-03-13T08:02:02.203Z,7.40
2023-03-13T08:03:02.173Z,5.80
2023-03-13T08:04:02.100Z,3.50
2023-03-13T08:05:02.050Z,3.90
2023-03-13T08:06:02.420Z,4.40
2023-03-13T08:07:02.017Z,2.90
2023-03-13T08:08:02.011Z,3.90
2023-03-13T08:09:02.038Z,3.80
2023-03-13T08:10:01.990Z,6.70
2023-03-13T08:11:01.986Z,5.10
2023-03-13T08:12:01.978Z,4.40
2023-03-13T08:13:03.416Z,3.60
2023-03-13T08:14:01.944Z,4.40
2023-03-13T08:15:02.435Z,3.60
2023-03-13T08:16:02.084Z,4.20
2023-03-13T08:17:01.958Z,4.60
2023-03-13T08:18:01.910Z,4.20
2023-03-13T08:19:01.876Z,2.80
2023-03-13T08:20:01.878Z,3.70
2023-03-13T08:21:01.861Z,3.90
2023-03-13T08:22:01.878Z,4.10
2023-03-13T08:23:03.302Z,4.20
2023-03-13T08:24:01.926Z,4.50
2023-03-13T08:25:01.805Z,4.70
2023-03-13T08:26:02.861Z,3.80
2023-03-13T08:27:03.253Z,5.60
2023-03-13T08:28:02.598Z,4.60
2023-03-13T08:29:02.285Z,5.00
2023-03-13T08:30:01.753Z,3.00
2023-03-13T08:31:01.864Z,5.30
2023-03-13T08:32:01.723Z,4.30
2023-03-13T08:33:01.768Z,4.80
2023-03-13T08:34:01.728Z,5.20
2023-03-13T08:35:01.678Z,4.20
2023-03-13T08:36:01.699Z,5.80
2023-03-13T08:37:01.659Z,4.30
2023-03-13T08:38:01.662Z,3.20
2023-03-13T08:39:01.655Z,4.70
2023-03-13T08:40:01.661Z,4.70
2023-03-13T08:41:01.609Z,5.70
2023-03-13T08:42:01.671Z,3.50
2023-03-13T08:43:01.621Z,4.30
2023-03-13T08:44:01.643Z,3.50
2023-03-13T08:45:01.578Z,5.00
2023-03-13T08:46:01.650Z,3.00
2023-03-13T08:47:01.551Z,5.10
2023-03-13T08:48:01.579Z,3.90
2023-03-13T08:49:01.515Z,4.60
2023-03-13T08:50:01.517Z,4.60
2023-03-13T08:51:01.855Z,4.00
2023-03-13T08:52:01.619Z,2.70
2023-03-13T08:53:02.475Z,6.60
2023-03-13T08:54:01.909Z,4.70
2023-03-13T08:55:01.459Z,4.50
2023-03-13T08:56:01.459Z,4.70
2023-03-13T08:57:01.450Z,3.10
2023-03-13T08:58:01.472Z,5.20
2023-03-13T08:59:01.503Z,5.00
2023-03-13T09:00:01.402Z,4.70
2023-03-13T09:01:01.396Z,5.70
2023-03-13T09:02:02.946Z,3.90
2023-03-13T09:03:01.383Z,3.20
2023-03-13T09:04:04.130Z,4.80
2023-03-13T09:05:01.652Z,5.80
2023-03-13T09:06:01.373Z,5.50
2023-03-13T09:07:01.357Z,4.10
2023-03-13T09:08:01.335Z,4.60
2023-03-13T09:09:01.314Z,3.30
2023-03-13T09:10:02.300Z,4.10
2023-03-13T09:11:01.304Z,4.40
2023-03-13T09:12:01.293Z,4.30
2023-03-13T09:13:01.300Z,4.70
2023-03-13T09:14:02.722Z,4.30
2023-03-13T09:15:01.426Z,4.60
2023-03-13T09:16:01.324Z,5.40
2023-03-13T09:17:01.240Z,5.00
2023-03-13T09:18:01.308Z,4.20
2023-03-13T09:19:01.267Z,4.20
2023-03-13T09:20:01.479Z,4.10
2023-03-13T09:21:01.177Z,6.10
2023-03-13T09:22:01.188Z,5.10
2023-03-13T09:23:01.159Z,2.50
2023-03-13T09:24:01.516Z,2.80
2023-03-13T09:25:01.132Z,6.30
2023-03-13T09:26:01.122Z,5.70
2023-03-13T09:27:01.847Z,4.50
2023-03-13T09:28:01.090Z,3.70
2023-03-13T09:29:01.085Z,4.90
2023-03-13T09:30:01.113Z,3.70
2023-03-13T09:31:01.084Z,4.90
2023-03-13T09:32:01.082Z,5.70
2023-03-13T09:33:02.701Z,4.50
2023-03-13T09:34:02.487Z,6.10
2023-03-13T09:35:01.996Z,3.60
2023-03-13T09:36:01.088Z,4.10
2023-03-13T09:37:01.567Z,4.30
2023-03-13T09:38:00.994Z,6.80
2023-03-13T09:39:00.965Z,7.60
2023-03-13T09:40:00.968Z,6.50
2023-03-13T09:41:06.162Z,4.50
2023-03-13T09:42:01.953Z,4.10
2023-03-13T09:43:00.921Z,3.70
2023-03-13T09:44:01.173Z,4.60
2023-03-13T09:45:00.932Z,3.30
2023-03-13T09:46:01.586Z,4.90
2023-03-13T09:47:00.875Z,5.40
2023-03-13T09:48:00.872Z,3.90
2023-03-13T09:49:00.860Z,5.20
2023-03-13T09:50:00.879Z,5.70
2023-03-13T09:51:00.853Z,4.20
2023-03-13T09:52:00.913Z,4.50
2023-03-13T09:53:00.920Z,4.40
2023-03-13T09:54:01.155Z,3.00
2023-03-13T09:55:00.825Z,3.90
2023-03-13T09:56:00.786Z,4.30
2023-03-13T09:57:01.769Z,6.60
2023-03-13T09:58:00.759Z,3.30
2023-03-13T09:59:00.749Z,5.50
2023-03-13T10:00:00.742Z,4.40
2023-03-13T10:01:00.757Z,3.20
2023-03-13T10:02:00.771Z,3.80
2023-03-13T10:03:00.751Z,3.60
2023-03-13T10:04:00.909Z,5.60
2023-03-13T10:05:00.685Z,4.70
2023-03-13T10:06:00.744Z,4.50
2023-03-13T10:07:00.672Z,2.90
2023-03-13T10:08:00.684Z,2.40
2023-03-13T10:09:02.112Z,4.70
2023-03-13T10:10:00.606Z,4.30
2023-03-13T10:11:00.617Z,3.70
2023-03-13T10:12:00.639Z,4.40
2023-03-13T10:13:00.622Z,8.00
2023-03-13T10:14:00.616Z,5.10
2023-03-13T10:15:00.558Z,5.10
2023-03-13T10:16:01.411Z,2.70
2023-03-13T10:17:00.538Z,3.80
2023-03-13T10:18:00.548Z,3.80
2023-03-13T10:19:00.540Z,4.10
2023-03-13T10:20:00.523Z,3.20
2023-03-13T10:21:00.500Z,3.70
2023-03-13T10:22:00.473Z,4.50
2023-03-13T10:23:01.438Z,4.20
2023-03-13T10:24:00.478Z,3.50
2023-03-13T10:25:00.468Z,2.20
2023-03-13T10:26:00.429Z,5.40
2023-03-13T10:27:01.377Z,1.90
2023-03-13T10:28:00.414Z,3.10
2023-03-13T10:29:00.425Z,3.60
2023-03-13T10:30:00.418Z,3.40
2023-03-13T10:31:00.416Z,3.60
2023-03-13T10:32:00.486Z,5.20
2023-03-13T10:33:00.409Z,5.80
2023-03-13T10:34:00.368Z,1.60
2023-03-13T10:35:00.364Z,4.20
2023-03-13T10:36:01.323Z,1.90
2023-03-13T10:37:00.314Z,3.20
2023-03-13T10:38:00.296Z,2.80
2023-03-13T10:39:01.263Z,2.10
2023-03-13T10:40:00.480Z,3.20
2023-03-13T10:41:00.277Z,2.50
2023-03-13T10:42:00.273Z,2.80
2023-03-13T10:43:00.278Z,2.20
2023-03-13T10:44:00.294Z,3.30
2023-03-13T10:45:01.247Z,2.80
2023-03-13T10:46:00.212Z,2.10
2023-03-13T10:47:00.272Z,4.50
2023-03-13T10:48:00.199Z,2.80
2023-03-13T10:49:00.219Z,2.60
2023-03-13T10:50:00.171Z,1.50
2023-03-13T10:51:02.250Z,2.30
2023-03-13T10:52:00.181Z,4.30
2023-03-13T10:53:00.144Z,1.60
2023-03-13T10:54:00.162Z,2.70
2023-03-13T10:55:00.281Z,1.90
2023-03-13T10:56:00.122Z,2.60
2023-03-13T10:57:00.097Z,2.10
2023-03-13T10:58:00.107Z,3.10
2023-03-13T10:59:00.103Z,2.70
2023-03-13T11:00:01.190Z,2.90
2023-03-13T11:01:00.078Z,2.20
2023-03-13T11:02:00.064Z,1.60
2023-03-13T11:03:00.122Z,2.20
2023-03-13T11:04:00.087Z,1.40
2023-03-13T11:05:00.001Z,2.70
2023-03-13T11:06:00.044Z,3.50
2023-03-13T11:06:59.998Z,2.20
2023-03-13T11:07:59.965Z,3.60
2023-03-13T11:08:59.948Z,1.40
2023-03-13T11:09:59.948Z,1.80
2023-03-13T11:10:59.935Z,1.70
2023-03-13T11:11:59.945Z,1.60
2023-03-13T11:12:59.909Z,2.10
2023-03-13T11:13:59.899Z,1.20
2023-03-13T11:14:59.975Z,2.70
2023-03-13T11:15:59.929Z,1.60
2023-03-13T11:16:59.888Z,2.60
2023-03-13T11:17:59.904Z,1.40
2023-03-13T11:18:59.836Z,2.40
2023-03-13T11:19:59.818Z,1.40
2023-03-13T11:21:12.154Z,1.50
2023-03-13T11:22:02.367Z,2.10
2023-03-13T11:22:59.794Z,1.80
2023-03-13T11:23:59.859Z,3.10
2023-03-13T11:24:59.797Z,2.30
2023-03-13T11:26:00.581Z,1.10
2023-03-13T11:27:04.790Z,1.20
2023-03-13T11:28:00.736Z,1.50
2023-03-13T11:28:59.730Z,2.70
2023-03-13T11:29:59.797Z,1.70
2023-03-13T11:30:59.724Z,4.10
2023-03-13T11:31:59.811Z,1.80
2023-03-13T11:32:59.721Z,1.10
2023-03-13T11:33:59.743Z,2.20
2023-03-13T11:34:59.664Z,1.20
2023-03-13T11:35:59.778Z,2.40
2023-03-13T11:37:00.584Z,1.40
2023-03-13T11:37:59.604Z,1.60
2023-03-13T11:38:59.605Z,1.40
2023-03-13T11:39:59.603Z,1.00
2023-03-13T11:40:59.631Z,1.30
2023-03-13T11:41:59.585Z,1.20
2023-03-13T11:42:59.565Z,1.30
2023-03-13T11:44:00.241Z,1.60
2023-03-13T11:45:00.523Z,1.10
2023-03-13T11:45:59.699Z,1.10
2023-03-13T11:46:59.563Z,1.70
2023-03-13T11:47:59.502Z,1.40
2023-03-13T11:48:59.516Z,1.10
2023-03-13T11:49:59.524Z,2.20
2023-03-13T11:50:59.512Z,1.10
2023-03-13T11:51:59.468Z,1.00
2023-03-13T11:52:59.477Z,1.00
2023-03-13T11:53:59.457Z,1.40
2023-03-13T11:54:59.460Z,0.80
2023-03-13T11:55:59.452Z,2.20
2023-03-13T11:56:59.425Z,2.10
2023-03-13T11:57:59.391Z,0.70
2023-03-13T11:58:59.403Z,0.90
2023-03-13T11:59:59.375Z,1.00
2023-03-13T12:00:59.467Z,1.10
2023-03-13T12:01:59.431Z,1.40
2023-03-13T12:02:59.362Z,0.90
2023-03-13T12:03:59.443Z,2.40
2023-03-13T12:04:59.374Z,1.20
2023-03-13T12:05:59.306Z,1.70
2023-03-13T12:07:00.693Z,2.50
2023-03-13T12:07:59.279Z,2.20
2023-03-13T12:08:59.302Z,3.00
2023-03-13T12:09:59.283Z,2.30
2023-03-13T12:10:59.290Z,1.60
2023-03-13T12:12:00.762Z,1.40
2023-03-13T12:12:59.240Z,2.10
2023-03-13T12:13:59.254Z,1.40
2023-03-13T12:14:59.219Z,1.30
2023-03-13T12:15:59.236Z,0.70
2023-03-13T12:16:59.208Z,1.10
2023-03-13T12:17:59.218Z,2.20
2023-03-13T12:18:59.181Z,1.00
2023-03-13T12:19:59.172Z,1.50
2023-03-13T12:20:59.137Z,2.10
2023-03-13T12:21:59.228Z,1.80
2023-03-13T12:23:00.066Z,2.20
2023-03-13T12:23:59.210Z,2.30
2023-03-13T12:24:59.138Z,1.60
2023-03-13T12:26:00.096Z,2.20
2023-03-13T12:26:59.073Z,2.20
2023-03-13T12:27:59.154Z,1.00
2023-03-13T12:28:59.045Z,1.30
2023-03-13T12:29:59.044Z,1.40
2023-03-13T12:30:59.084Z,1.90
2023-03-13T12:31:59.091Z,1.00
2023-03-13T12:32:59.088Z,4.30
2023-03-13T12:33:59.013Z,2.00
2023-03-13T12:34:58.978Z,1.90
2023-03-13T12:35:59.943Z,2.30
2023-03-13T12:36:58.980Z,1.60
2023-03-13T12:37:58.981Z,2.00
2023-03-13T12:38:58.955Z,0.80
2023-03-13T12:39:58.930Z,0.80
2023-03-13T12:40:58.918Z,1.50
2023-03-13T12:41:58.903Z,0.90
2023-03-13T12:42:59.982Z,1.50
2023-03-13T12:44:08.729Z,1.50
2023-03-13T12:44:59.897Z,1.20
2023-03-13T12:45:59.087Z,0.80
2023-03-13T12:46:58.857Z,1.50
2023-03-13T12:47:58.900Z,1.90
2023-03-13T12:48:58.846Z,1.70
2023-03-13T12:49:58.818Z,1.70
2023-03-13T12:50:58.802Z,1.80
2023-03-13T12:51:58.805Z,1.60
2023-03-13T12:52:58.778Z,2.80
2023-03-13T12:53:58.799Z,1.80
2023-03-13T12:54:58.764Z,0.80
2023-03-13T12:55:58.747Z,0.60
2023-03-13T12:56:58.765Z,1.20
2023-03-13T12:57:58.806Z,1.70
2023-03-13T12:58:58.723Z,2.20
2023-03-13T12:59:58.708Z,0.80
2023-03-13T13:00:58.718Z,1.30
2023-03-13T13:01:58.669Z,1.20
2023-03-13T13:02:58.709Z,0.90
2023-03-13T13:03:58.696Z,3.00
2023-03-13T13:04:58.826Z,0.90
2023-03-13T13:05:58.634Z,0.60
2023-03-13T13:06:58.627Z,1.90
2023-03-13T13:07:58.605Z,0.80
2023-03-13T13:08:58.653Z,1.00
2023-03-13T13:09:58.595Z,2.60
2023-03-13T13:10:58.577Z,1.10
2023-03-13T13:11:58.567Z,1.10
2023-03-13T13:12:58.544Z,1.30
2023-03-13T13:13:58.576Z,0.70
2023-03-13T13:14:58.542Z,0.70
2023-03-13T13:15:58.616Z,1.20
2023-03-13T13:16:58.518Z,2.20
2023-03-13T13:17:58.500Z,1.00
2023-03-13T13:19:02.802Z,0.80
2023-03-13T13:19:58.512Z,1.10
2023-03-13T13:20:58.476Z,0.80
2023-03-13T13:21:58.477Z,0.80
2023-03-13T13:22:58.456Z,2.30
2023-03-13T13:23:58.432Z,0.80
2023-03-13T13:24:58.423Z,1.60
2023-03-13T13:25:58.448Z,1.90
2023-03-13T13:26:58.420Z,1.20
2023-03-13T13:27:59.147Z,0.90
2023-03-13T13:28:58.412Z,0.70
2023-03-13T13:29:58.351Z,0.80
2023-03-13T13:30:58.489Z,1.30
2023-03-13T13:31:59.239Z,2.20
2023-03-13T13:32:58.393Z,2.80
2023-03-13T13:33:58.315Z,1.00
2023-03-13T13:34:58.302Z,1.30
2023-03-13T13:35:58.306Z,1.40
2023-03-13T13:36:58.303Z,1.00
2023-03-13T13:37:58.298Z,0.90
2023-03-13T13:38:58.252Z,1.20
2023-03-13T13:39:58.306Z,1.80
2023-03-13T13:40:58.461Z,0.80
2023-03-13T13:41:58.220Z,0.80
2023-03-13T13:42:58.257Z,1.70
2023-03-13T13:43:58.201Z,0.80
2023-03-13T13:44:58.411Z,1.10
2023-03-13T13:45:58.220Z,1.60
2023-03-13T13:46:58.162Z,1.50
2023-03-13T13:47:58.162Z,2.20
2023-03-13T13:48:58.159Z,1.60
2023-03-13T13:49:59.122Z,1.20
2023-03-13T13:50:58.122Z,1.40
2023-03-13T13:51:58.132Z,3.00
2023-03-13T13:52:58.105Z,1.60
2023-03-13T13:53:58.106Z,1.80
2023-03-13T13:54:58.082Z,0.90
2023-03-13T13:55:58.103Z,1.00
2023-03-13T13:56:58.101Z,2.10
2023-03-13T13:57:58.049Z,1.70
2023-03-13T13:58:58.045Z,0.70
2023-03-13T13:59:58.991Z,1.80
2023-03-13T14:00:58.045Z,0.90
2023-03-13T14:01:58.065Z,0.90
2023-03-13T14:02:57.988Z,1.80
2023-03-13T14:03:57.985Z,2.10
2023-03-13T14:04:58.096Z,1.00
2023-03-13T14:05:57.965Z,1.40
2023-03-13T14:06:57.966Z,1.10
2023-03-13T14:07:58.627Z,1.90
2023-03-13T14:08:57.927Z,0.80
2023-03-13T14:09:57.918Z,1.00
2023-03-13T14:10:59.400Z,0.80
2023-03-13T14:11:59.354Z,2.00
2023-03-13T14:12:59.335Z,1.00
2023-03-13T14:13:59.327Z,0.80
2023-03-13T14:14:57.874Z,1.60
2023-03-13T14:15:57.869Z,0.80
2023-03-13T14:16:57.905Z,1.40
2023-03-13T14:17:57.826Z,1.80
2023-03-13T14:18:59.265Z,0.90
2023-03-13T14:19:58.769Z,1.70
2023-03-13T14:20:57.799Z,1.40
2023-03-13T14:21:57.781Z,1.00
2023-03-13T14:23:00.674Z,1.10
2023-03-13T14:23:57.760Z,1.60
2023-03-13T14:24:57.760Z,1.40
2023-03-13T14:25:57.772Z,2.90
2023-03-13T14:26:57.723Z,2.00
2023-03-13T14:27:57.978Z,2.10
2023-03-13T14:28:57.718Z,1.30
2023-03-13T14:29:57.710Z,1.50
2023-03-13T14:31:01.536Z,1.40
2023-03-13T14:31:57.682Z,2.30
2023-03-13T14:32:57.739Z,2.30
2023-03-13T14:33:58.513Z,1.10
2023-03-13T14:34:57.641Z,1.70
2023-03-13T14:35:57.962Z,2.60
2023-03-13T14:37:14.818Z,2.50
2023-03-13T14:37:58.678Z,1.30
2023-03-13T14:38:57.638Z,1.20
2023-03-13T14:39:57.584Z,1.30
2023-03-13T14:40:57.565Z,1.50
2023-03-13T14:41:59.026Z,3.60
2023-03-13T14:42:57.568Z,1.10
2023-03-13T14:43:58.993Z,1.50
2023-03-13T14:44:59.737Z,1.70
2023-03-13T14:45:57.533Z,2.50
2023-03-13T14:46:59.054Z,1.30
2023-03-13T14:47:57.500Z,1.60
2023-03-13T14:48:57.474Z,1.50
2023-03-13T14:49:57.505Z,3.20
2023-03-13T14:51:08.842Z,0.90
2023-03-13T14:51:58.446Z,1.70
2023-03-13T14:52:57.416Z,1.00
2023-03-13T14:53:57.425Z,1.40
2023-03-13T14:54:57.430Z,1.30
2023-03-13T14:55:57.404Z,0.90
2023-03-13T14:56:57.390Z,2.20
2023-03-13T14:57:57.386Z,0.90
2023-03-13T14:58:57.366Z,1.40
2023-03-13T14:59:57.389Z,1.20
2023-03-13T15:00:57.423Z,1.80
2023-03-13T15:01:57.327Z,1.50
2023-03-13T15:02:57.314Z,2.20
2023-03-13T15:03:57.348Z,1.90
2023-03-13T15:04:57.319Z,2.30
2023-03-13T15:05:57.275Z,1.20
2023-03-13T15:06:58.094Z,2.20
2023-03-13T15:07:57.271Z,2.50
2023-03-13T15:08:57.268Z,2.10
2023-03-13T15:09:57.241Z,2.40
2023-03-13T15:10:58.193Z,0.90
2023-03-13T15:11:57.260Z,2.30
2023-03-13T15:12:57.250Z,1.40
2023-03-13T15:13:57.203Z,1.50
2023-03-13T15:14:57.272Z,1.40
2023-03-13T15:15:57.205Z,1.30
2023-03-13T15:16:57.160Z,1.50
2023-03-13T15:17:57.190Z,2.70
2023-03-13T15:18:57.148Z,1.00
2023-03-13T15:19:57.518Z,1.40
2023-03-13T15:20:57.119Z,1.50
2023-03-13T15:21:57.095Z,2.20
2023-03-13T15:22:57.093Z,2.30
2023-03-13T15:23:57.384Z,1.80
2023-03-13T15:25:06.126Z,1.70
2023-03-13T15:25:58.052Z,1.20
2023-03-13T15:26:57.033Z,2.30
2023-03-13T15:27:57.038Z,1.00
2023-03-13T15:28:57.018Z,1.10
2023-03-13T15:29:57.038Z,1.20
2023-03-13T15:30:57.466Z,2.30
2023-03-13T15:31:57.589Z,1.00
2023-03-13T15:32:57.023Z,1.30
2023-03-13T15:33:57.790Z,1.40
2023-03-13T15:34:57.328Z,2.00
2023-03-13T15:35:57.045Z,2.30
2023-03-13T15:36:56.956Z,1.50
2023-03-13T15:37:58.451Z,1.10
2023-03-13T15:38:56.910Z,4.10
2023-03-13T15:39:56.911Z,2.60
2023-03-13T15:40:56.876Z,1.10
2023-03-13T15:41:57.691Z,2.30
2023-03-13T15:42:58.380Z,1.10
2023-03-13T15:43:58.311Z,3.00
2023-03-13T15:44:56.911Z,2.80
2023-03-13T15:45:56.872Z,3.00
2023-03-13T15:46:56.836Z,2.30
2023-03-13T15:47:56.857Z,1.60
2023-03-13T15:48:56.870Z,3.50
2023-03-13T15:49:56.782Z,3.50
2023-03-13T15:50:56.782Z,3.20
2023-03-13T15:51:57.899Z,1.80
2023-03-13T15:52:56.758Z,2.00
2023-03-13T15:53:56.751Z,1.40
2023-03-13T15:54:57.710Z,3.90
2023-03-13T15:55:56.964Z,2.90
2023-03-13T15:56:58.163Z,5.50
2023-03-13T15:57:56.705Z,3.10
2023-03-13T15:58:56.964Z,1.40
2023-03-13T15:59:56.697Z,1.60
2023-03-13T16:00:56.672Z,1.80
2023-03-13T16:01:56.689Z,2.40
2023-03-13T16:02:56.692Z,1.50
2023-03-13T16:03:56.656Z,1.50
2023-03-13T16:04:58.107Z,2.00
2023-03-13T16:05:56.648Z,2.60
2023-03-13T16:06:56.911Z,2.70
2023-03-13T16:07:56.624Z,2.40
2023-03-13T16:08:56.573Z,2.60
2023-03-13T16:09:56.578Z,3.40
2023-03-13T16:10:56.547Z,2.60
2023-03-13T16:11:56.540Z,2.80
2023-03-13T16:12:56.521Z,2.00
2023-03-13T16:13:57.536Z,1.10
2023-03-13T16:14:56.567Z,1.70
2023-03-13T16:15:57.952Z,2.60
2023-03-13T16:16:56.564Z,2.20
2023-03-13T16:17:57.915Z,4.80
2023-03-13T16:19:00.622Z,2.20
2023-03-13T16:19:56.461Z,1.70
2023-03-13T16:20:56.441Z,4.70
2023-03-13T16:21:56.430Z,3.50
2023-03-13T16:22:56.449Z,1.80
2023-03-13T16:23:56.455Z,3.80
2023-03-13T16:24:56.404Z,2.70
2023-03-13T16:25:56.512Z,2.00
2023-03-13T16:26:57.832Z,2.10
2023-03-13T16:27:56.408Z,3.00
2023-03-13T16:28:56.383Z,8.00
2023-03-13T16:29:56.361Z,3.90
2023-03-13T16:30:56.353Z,2.60
2023-03-13T16:31:56.352Z,2.70
2023-03-13T16:32:56.352Z,2.40
2023-03-13T16:33:57.776Z,2.80
2023-03-13T16:34:57.141Z,1.70
2023-03-13T16:35:57.069Z,2.80
2023-03-13T16:36:57.710Z,3.10
2023-03-13T16:37:56.407Z,1.90
2023-03-13T16:38:56.234Z,2.50
2023-03-13T16:39:56.232Z,1.70
2023-03-13T16:40:56.237Z,2.30
2023-03-13T16:41:56.247Z,3.80
2023-03-13T16:42:57.653Z,3.30
2023-03-13T16:43:56.189Z,2.20
2023-03-13T16:44:56.157Z,3.60
2023-03-13T16:45:56.193Z,2.80
2023-03-13T16:47:05.642Z,2.70
2023-03-13T16:47:58.609Z,3.70
2023-03-13T16:48:56.122Z,3.20
2023-03-13T16:49:57.687Z,2.20
2023-03-13T16:50:58.117Z,1.90
2023-03-13T16:51:56.087Z,3.90
2023-03-13T16:52:56.100Z,2.30
2023-03-13T16:53:56.080Z,2.90
2023-03-13T16:54:56.105Z,3.10
2023-03-13T16:55:56.073Z,3.00
2023-03-13T16:56:56.047Z,2.80
2023-03-13T16:57:56.031Z,3.30
2023-03-13T16:58:56.044Z,2.40
2023-03-13T16:59:56.005Z,2.50
2023-03-13T17:01:56.983Z,2.10
2023-03-13T17:02:56.006Z,4.50
2023-03-13T17:03:55.998Z,2.90
2023-03-13T17:04:56.019Z,1.90
2023-03-13T17:05:56.372Z,2.20
2023-03-13T17:06:55.938Z,2.50
2023-03-13T17:07:55.948Z,1.80
2023-03-13T17:08:55.884Z,3.70
2023-03-13T17:09:55.891Z,1.80
2023-03-13T17:10:55.900Z,3.50
2023-03-13T17:11:55.853Z,2.00
2023-03-13T17:12:55.897Z,2.20
2023-03-13T17:13:56.064Z,2.80
2023-03-13T17:14:55.825Z,1.70
2023-03-13T17:15:55.917Z,3.00
2023-03-13T17:16:56.762Z,3.10
2023-03-13T17:17:55.797Z,3.00
2023-03-13T17:18:55.786Z,3.10
2023-03-13T17:19:56.566Z,3.00
2023-03-13T17:20:57.242Z,3.00
2023-03-13T17:21:57.214Z,3.60
2023-03-13T17:22:55.774Z,2.90
2023-03-13T17:23:55.736Z,2.60
2023-03-13T17:24:55.751Z,1.70
2023-03-13T17:25:55.710Z,4.70
2023-03-13T17:26:55.697Z,3.20
2023-03-13T17:27:55.698Z,3.50
2023-03-13T17:28:56.177Z,2.50
2023-03-13T17:29:55.659Z,2.50
2023-03-13T17:30:55.686Z,3.20
2023-03-13T17:31:55.641Z,3.50
2023-03-13T17:32:55.716Z,2.90
2023-03-13T17:33:55.613Z,3.70
2023-03-13T17:34:55.644Z,4.00
2023-03-13T17:35:56.574Z,5.30
2023-03-13T17:36:55.625Z,3.10
2023-03-13T17:37:55.568Z,3.60
2023-03-13T17:38:55.564Z,3.10
2023-03-13T17:39:55.547Z,2.80
2023-03-13T17:40:55.526Z,2.60
2023-03-13T17:41:55.520Z,4.50
2023-03-13T17:42:55.526Z,2.20
2023-03-13T17:43:56.331Z,2.50
2023-03-13T17:44:56.948Z,3.60
2023-03-13T17:45:55.811Z,3.70
2023-03-13T17:46:57.008Z,3.40
2023-03-13T17:47:55.527Z,3.40
2023-03-13T17:48:55.443Z,3.00
2023-03-13T17:49:55.468Z,4.80
2023-03-13T17:50:55.560Z,2.10
2023-03-13T17:51:56.982Z,2.50
2023-03-13T17:52:55.431Z,2.50
2023-03-13T17:53:55.457Z,3.30
2023-03-13T17:54:55.379Z,2.80
2023-03-13T17:55:55.398Z,2.50
2023-03-13T17:56:56.412Z,3.40
2023-03-13T17:57:55.353Z,3.60
2023-03-13T17:58:55.333Z,4.50
2023-03-13T17:59:55.337Z,3.80
2023-03-13T18:00:55.353Z,4.10
2023-03-13T18:01:55.317Z,3.40
2023-03-13T18:02:55.354Z,1.80
2023-03-13T18:03:55.344Z,3.60
2023-03-13T18:04:55.309Z,1.90
2023-03-13T18:05:55.291Z,2.60
2023-03-13T18:06:55.273Z,3.40
2023-03-13T18:07:55.256Z,2.70
2023-03-13T18:08:55.250Z,4.70
2023-03-13T18:09:55.197Z,17.50
2023-03-13T18:10:55.206Z,35.40
2023-03-13T18:11:55.184Z,17.40
2023-03-13T18:12:55.185Z,8.50
2023-03-13T18:13:55.179Z,3.50
2023-03-13T18:14:55.148Z,2.40
2023-03-13T18:15:55.185Z,4.50
2023-03-13T18:16:55.139Z,4.00
2023-03-13T18:17:55.117Z,4.10
2023-03-13T18:18:55.117Z,2.50
2023-03-13T18:19:55.088Z,3.80
2023-03-13T18:20:55.313Z,3.90
2023-03-13T18:21:55.395Z,3.70
2023-03-13T18:22:55.136Z,3.80
2023-03-13T18:23:55.065Z,2.40
2023-03-13T18:24:55.042Z,2.40
2023-03-13T18:25:55.395Z,3.90
2023-03-13T18:26:55.063Z,2.50
2023-03-13T18:27:55.078Z,3.90
2023-03-13T18:28:55.111Z,3.10
2023-03-13T18:29:54.977Z,4.70
2023-03-13T18:30:54.973Z,3.30
2023-03-13T18:31:55.540Z,4.90
2023-03-13T18:32:55.868Z,2.60
2023-03-13T18:33:54.980Z,3.70
2023-03-13T18:34:54.933Z,4.10